sensor_id;sensor_type;location;lat;lon;timestamp;pressure;altitude;pressure_sealevel;temperature;humidity
17593;BME280;8915;51.760;14.300;2022-12-10T00:01:41;99979.22;;;-1.30;100.00
17593;BME280;8915;51.760;14.300;2022-12-10T00:04:08;99981.81;;;-1.29;100.00
17593;BME280;8915;51.760;14.300;2022-12-10T00:06:36;99987.78;;;-1.30;100.00
17593;BME280;8915;51.760;14.300;2022-12-10T00:09:07;99982.69;;;-1.28;100.00
17593;BME280;8915;51.760;14.300;2022-12-10T00:11:33;99979.28;;;-1.27;100.00
17593;BME280;8915;51.760;14.300;2022-12-10T00:14:00;99979.28;;;-1.27;100.00
17593;BME280;8915;51.760;14.300;2022-12-10T00:16:28;99983.56;;;-1.26;100.00
17593;BME280;8915;51.760;14.300;2022-12-10T00:18:56;99980.13;;;-1.25;100.00
17593;BME280;8915;51.760;14.300;2022-12-10T00:21:24;99973.31;;;-1.26;100.00
17593;BME280;8915;51.760;14.300;2022-12-10T00:23:52;99978.41;;;-1.28;100.00
17593;BME280;8915;51.760;14.300;2022-12-10T00:26:21;99986.13;;;-1.25;100.00
17593;BME280;8915;51.760;14.300;2022-12-10T00:28:48;99975.03;;;-1.25;100.00
17593;BME280;8915;51.760;14.300;2022-12-10T00:31:17;99983.56;;;-1.23;100.00
17593;BME280;8915;51.760;14.300;2022-12-10T00:33:44;99990.38;;;-1.25;100.00
17593;BME280;8915;51.760;14.300;2022-12-10T00:36:13;99984.41;;;-1.26;100.00
17593;BME280;8915;51.760;14.300;2022-12-10T00:38:40;99980.13;;;-1.25;100.00
17593;BME280;8915;51.760;14.300;2022-12-10T00:41:08;99978.44;;;-1.26;100.00
17593;BME280;8915;51.760;14.300;2022-12-10T00:43:35;99983.56;;;-1.25;100.00
17593;BME280;8915;51.760;14.300;2022-12-10T00:46:02;99982.75;;;-1.22;100.00
17593;BME280;8915;51.760;14.300;2022-12-10T00:48:29;99983.56;;;-1.23;100.00
17593;BME280;8915;51.760;14.300;2022-12-10T00:50:57;99976.75;;;-1.24;100.00
17593;BME280;8915;51.760;14.300;2022-12-10T00:53:23;99984.44;;;-1.24;100.00
17593;BME280;8915;51.760;14.300;2022-12-10T00:55:51;99990.38;;;-1.25;100.00
17593;BME280;8915;51.760;14.300;2022-12-10T00:58:20;99987.81;;;-1.25;100.00
17593;BME280;8915;51.760;14.300;2022-12-10T01:00:46;99995.50;;;-1.25;100.00
17593;BME280;8915;51.760;14.300;2022-12-10T01:03:13;99993.81;;;-1.25;100.00
17593;BME280;8915;51.760;14.300;2022-12-10T01:05:39;99994.69;;;-1.23;100.00
17593;BME280;8915;51.760;14.300;2022-12-10T01:08:06;99999.81;;;-1.23;100.00
17593;BME280;8915;51.760;14.300;2022-12-10T01:10:32;99996.34;;;-1.23;100.00
17593;BME280;8915;51.760;14.300;2022-12-10T01:12:59;99997.25;;;-1.23;100.00
17593;BME280;8915;51.760;14.300;2022-12-10T01:15:27;99998.09;;;-1.22;100.00
17593;BME280;8915;51.760;14.300;2022-12-10T01:17:53;99996.38;;;-1.25;100.00
17593;BME280;8915;51.760;14.300;2022-12-10T01:20:20;99991.25;;;-1.25;100.00
17593;BME280;8915;51.760;14.300;2022-12-10T01:22:47;99989.53;;;-1.26;100.00
17593;BME280;8915;51.760;14.300;2022-12-10T01:25:13;100000.59;;;-1.25;100.00
17593;BME280;8915;51.760;14.300;2022-12-10T01:27:39;99996.38;;;-1.25;100.00
17593;BME280;8915;51.760;14.300;2022-12-10T01:30:07;99998.94;;;-1.25;100.00
17593;BME280;8915;51.760;14.300;2022-12-10T01:32:36;99994.63;;;-1.26;100.00
17593;BME280;8915;51.760;14.300;2022-12-10T01:35:03;99997.19;;;-1.26;100.00
17593;BME280;8915;51.760;14.300;2022-12-10T01:37:30;100004.84;;;-1.27;100.00
17593;BME280;8915;51.760;14.300;2022-12-10T01:39:56;100003.13;;;-1.27;100.00
17593;BME280;8915;51.760;14.300;2022-12-10T01:42:23;99998.88;;;-1.28;100.00
17593;BME280;8915;51.760;14.300;2022-12-10T01:44:59;99999.69;;;-1.30;100.00
17593;BME280;8915;51.760;14.300;2022-12-10T01:47:27;100005.72;;;-1.28;100.00
17593;BME280;8915;51.760;14.300;2022-12-10T01:49:57;99998.00;;;-1.31;100.00
17593;BME280;8915;51.760;14.300;2022-12-10T01:52:24;99998.00;;;-1.31;100.00
17593;BME280;8915;51.760;14.300;2022-12-10T01:54:50;100001.38;;;-1.33;100.00
17593;BME280;8915;51.760;14.300;2022-12-10T01:57:19;100003.06;;;-1.35;100.00
17593;BME280;8915;51.760;14.300;2022-12-10T01:59:49;100010.75;;;-1.33;100.00
17593;BME280;8915;51.760;14.300;2022-12-10T02:02:23;99999.66;;;-1.32;100.00
17593;BME280;8915;51.760;14.300;2022-12-10T02:04:59;99994.56;;;-1.34;100.00
17593;BME280;8915;51.760;14.300;2022-12-10T02:07:38;99994.53;;;-1.35;100.00
17593;BME280;8915;51.760;14.300;2022-12-10T02:10:10;99998.78;;;-1.34;100.00
17593;BME280;8915;51.760;14.300;2022-12-10T02:12:46;99994.50;;;-1.37;100.00
17593;BME280;8915;51.760;14.300;2022-12-10T02:15:16;99995.38;;;-1.35;100.00
17593;BME280;8915;51.760;14.300;2022-12-10T02:17:45;99987.69;;;-1.36;100.00
17593;BME280;8915;51.760;14.300;2022-12-10T02:20:17;99987.66;;;-1.39;100.00
17593;BME280;8915;51.760;14.300;2022-12-10T02:22:48;99985.09;;;-1.39;100.00
17593;BME280;8915;51.760;14.300;2022-12-10T02:25:19;99993.63;;;-1.40;100.00
17593;BME280;8915;51.760;14.300;2022-12-10T02:27:52;99995.28;;;-1.41;100.00
17593;BME280;8915;51.760;14.300;2022-12-10T02:30:22;99993.56;;;-1.43;100.00
17593;BME280;8915;51.760;14.300;2022-12-10T02:32:49;99992.75;;;-1.42;100.00
17593;BME280;8915;51.760;14.300;2022-12-10T02:35:20;99996.97;;;-1.44;100.00
17593;BME280;8915;51.760;14.300;2022-12-10T02:37:53;99996.97;;;-1.44;100.00
17593;BME280;8915;51.760;14.300;2022-12-10T02:40:23;99999.53;;;-1.43;100.00
17593;BME280;8915;51.760;14.300;2022-12-10T02:42:53;100002.06;;;-1.46;100.00
17593;BME280;8915;51.760;14.300;2022-12-10T02:45:25;99993.56;;;-1.45;100.00
17593;BME280;8915;51.760;14.300;2022-12-10T02:47:55;100000.41;;;-1.44;100.00
17593;BME280;8915;51.760;14.300;2022-12-10T02:50:24;100000.38;;;-1.45;100.00
17593;BME280;8915;51.760;14.300;2022-12-10T02:52:51;99996.09;;;-1.46;100.00
17593;BME280;8915;51.760;14.300;2022-12-10T02:55:18;99997.78;;;-1.47;100.00
17593;BME280;8915;51.760;14.300;2022-12-10T02:57:58;100001.19;;;-1.48;100.00
17593;BME280;8915;51.760;14.300;2022-12-10T03:00:32;99998.63;;;-1.49;100.00
17593;BME280;8915;51.760;14.300;2022-12-10T03:03:18;99997.78;;;-1.48;100.00
17593;BME280;8915;51.760;14.300;2022-12-10T03:05:55;99995.19;;;-1.50;100.00
17593;BME280;8915;51.760;14.300;2022-12-10T03:08:27;100002.84;;;-1.52;100.00
17593;BME280;8915;51.760;14.300;2022-12-10T03:10:58;100001.16;;;-1.51;100.00
17593;BME280;8915;51.760;14.300;2022-12-10T03:13:29;99995.13;;;-1.53;100.00
17593;BME280;8915;51.760;14.300;2022-12-10T03:16:00;99995.16;;;-1.55;100.00
17593;BME280;8915;51.760;14.300;2022-12-10T03:18:29;100001.94;;;-1.55;100.00
17593;BME280;8915;51.760;14.300;2022-12-10T03:20:58;100004.53;;;-1.54;100.00
17593;BME280;8915;51.760;14.300;2022-12-10T03:23:27;100008.78;;;-1.54;100.00
17593;BME280;8915;51.760;14.300;2022-12-10T03:25:54;99999.38;;;-1.55;100.00
17593;BME280;8915;51.760;14.300;2022-12-10T03:28:22;100002.78;;;-1.56;100.00
17593;BME280;8915;51.760;14.300;2022-12-10T03:30:50;100006.19;;;-1.56;100.00
17593;BME280;8915;51.760;14.300;2022-12-10T03:33:19;100002.78;;;-1.56;100.00
17593;BME280;8915;51.760;14.300;2022-12-10T03:35:45;99999.38;;;-1.55;100.00
17593;BME280;8915;51.760;14.300;2022-12-10T03:38:13;100007.88;;;-1.58;100.00
17593;BME280;8915;51.760;14.300;2022-12-10T03:40:40;100007.84;;;-1.59;100.00
17593;BME280;8915;51.760;14.300;2022-12-10T03:43:06;100008.72;;;-1.59;100.00
17593;BME280;8915;51.760;14.300;2022-12-10T03:45:33;100011.28;;;-1.59;100.00
17593;BME280;8915;51.760;14.300;2022-12-10T03:47:59;100010.41;;;-1.59;100.00
17593;BME280;8915;51.760;14.300;2022-12-10T03:50:27;100007.00;;;-1.60;100.00
17593;BME280;8915;51.760;14.300;2022-12-10T03:52:53;100001.00;;;-1.60;100.00
17593;BME280;8915;51.760;14.300;2022-12-10T03:55:19;100003.56;;;-1.60;100.00
17593;BME280;8915;51.760;14.300;2022-12-10T03:57:46;100013.81;;;-1.62;100.00
17593;BME280;8915;51.760;14.300;2022-12-10T04:00:14;100003.56;;;-1.62;100.00
17593;BME280;8915;51.760;14.300;2022-12-10T04:02:40;100011.25;;;-1.62;100.00
17593;BME280;8915;51.760;14.300;2022-12-10T04:05:07;100004.44;;;-1.61;100.00
17593;BME280;8915;51.760;14.300;2022-12-10T04:07:35;100021.44;;;-1.63;100.00
17593;BME280;8915;51.760;14.300;2022-12-10T04:10:02;100017.13;;;-1.66;100.00
17593;BME280;8915;51.760;14.300;2022-12-10T04:12:29;100018.84;;;-1.66;100.00
17593;BME280;8915;51.760;14.300;2022-12-10T04:14:56;100016.28;;;-1.66;100.00
17593;BME280;8915;51.760;14.300;2022-12-10T04:17:39;100020.53;;;-1.65;100.00
17593;BME280;8915;51.760;14.300;2022-12-10T04:20:06;100020.53;;;-1.65;100.00
17593;BME280;8915;51.760;14.300;2022-12-10T04:22:54;100016.28;;;-1.66;100.00
17593;BME280;8915;51.760;14.300;2022-12-10T04:25:38;100024.00;;;-1.63;100.00
17593;BME280;8915;51.760;14.300;2022-12-10T04:28:23;100028.28;;;-1.61;100.00
17593;BME280;8915;51.760;14.300;2022-12-10T04:30:49;100027.38;;;-1.64;100.00
17593;BME280;8915;51.760;14.300;2022-12-10T04:33:15;100034.22;;;-1.63;100.00
17593;BME280;8915;51.760;14.300;2022-12-10T04:35:42;100023.94;;;-1.66;100.00
17593;BME280;8915;51.760;14.300;2022-12-10T04:38:09;100023.94;;;-1.66;100.00
17593;BME280;8915;51.760;14.300;2022-12-10T04:40:36;100020.56;;;-1.67;100.00
17593;BME280;8915;51.760;14.300;2022-12-10T04:43:02;100027.34;;;-1.67;100.00
17593;BME280;8915;51.760;14.300;2022-12-10T04:45:28;100019.63;;;-1.69;100.00
17593;BME280;8915;51.760;14.300;2022-12-10T04:47:55;100029.00;;;-1.71;100.00
17593;BME280;8915;51.760;14.300;2022-12-10T04:50:22;100029.88;;;-1.69;100.00
17593;BME280;8915;51.760;14.300;2022-12-10T04:52:49;100024.75;;;-1.69;100.00
17593;BME280;8915;51.760;14.300;2022-12-10T04:55:16;100029.03;;;-1.69;100.00
17593;BME280;8915;51.760;14.300;2022-12-10T04:57:43;100028.19;;;-1.68;100.00
17593;BME280;8915;51.760;14.300;2022-12-10T05:00:10;100018.81;;;-1.68;100.00
17593;BME280;8915;51.760;14.300;2022-12-10T05:02:37;100024.75;;;-1.69;100.00
17593;BME280;8915;51.760;14.300;2022-12-10T05:05:04;100025.63;;;-1.68;100.00
17593;BME280;8915;51.760;14.300;2022-12-10T05:07:32;100029.03;;;-1.68;100.00
17593;BME280;8915;51.760;14.300;2022-12-10T05:09:58;100035.03;;;-1.66;100.00
17593;BME280;8915;51.760;14.300;2022-12-10T05:12:26;100033.34;;;-1.67;100.00
17593;BME280;8915;51.760;14.300;2022-12-10T05:14:53;100025.63;;;-1.68;100.00
17593;BME280;8915;51.760;14.300;2022-12-10T05:17:19;100036.75;;;-1.66;100.00
17593;BME280;8915;51.760;14.300;2022-12-10T05:19:45;100036.72;;;-1.68;100.00
17593;BME280;8915;51.760;14.300;2022-12-10T05:22:12;100034.13;;;-1.69;100.00
17593;BME280;8915;51.760;14.300;2022-12-10T05:24:56;100030.72;;;-1.70;100.00
17593;BME280;8915;51.760;14.300;2022-12-10T05:27:22;100040.09;;;-1.69;100.00
17593;BME280;8915;51.760;14.300;2022-12-10T05:29:50;100033.28;;;-1.70;100.00
17593;BME280;8915;51.760;14.300;2022-12-10T05:32:16;100029.88;;;-1.70;100.00
17593;BME280;8915;51.760;14.300;2022-12-10T05:34:43;100039.22;;;-1.71;100.00
17593;BME280;8915;51.760;14.300;2022-12-10T05:37:09;100044.31;;;-1.73;100.00
17593;BME280;8915;51.760;14.300;2022-12-10T05:39:35;100045.16;;;-1.74;100.00
17593;BME280;8915;51.760;14.300;2022-12-10T05:42:02;100045.94;;;-1.78;100.00
17593;BME280;8915;51.760;14.300;2022-12-10T05:44:29;100039.16;;;-1.77;100.00
17593;BME280;8915;51.760;14.300;2022-12-10T05:46:57;100045.16;;;-1.74;100.00
17593;BME280;8915;51.760;14.300;2022-12-10T05:49:23;100040.91;;;-1.73;100.00
17593;BME280;8915;51.760;14.300;2022-12-10T05:51:50;100045.97;;;-1.75;100.00
17593;BME280;8915;51.760;14.300;2022-12-10T05:54:16;100042.56;;;-1.77;100.00
17593;BME280;8915;51.760;14.300;2022-12-10T05:56:42;100039.97;;;-1.78;100.00
17593;BME280;8915;51.760;14.300;2022-12-10T05:59:09;100036.59;;;-1.77;100.00
17593;BME280;8915;51.760;14.300;2022-12-10T06:01:35;100041.72;;;-1.76;100.00
17593;BME280;8915;51.760;14.300;2022-12-10T06:04:04;100037.38;;;-1.80;100.00
17593;BME280;8915;51.760;14.300;2022-12-10T06:06:33;100046.75;;;-1.80;100.00
17593;BME280;8915;51.760;14.300;2022-12-10T06:09:00;100037.38;;;-1.80;100.00
17593;BME280;8915;51.760;14.300;2022-12-10T06:11:27;100045.94;;;-1.79;100.00
17593;BME280;8915;51.760;14.300;2022-12-10T06:13:54;100047.59;;;-1.80;100.00
17593;BME280;8915;51.760;14.300;2022-12-10T06:16:22;100045.06;;;-1.80;100.00
17593;BME280;8915;51.760;14.300;2022-12-10T06:18:49;100052.75;;;-1.78;100.00
17593;BME280;8915;51.760;14.300;2022-12-10T06:21:18;100048.47;;;-1.81;100.00
17593;BME280;8915;51.760;14.300;2022-12-10T06:23:44;100051.03;;;-1.81;100.00
17593;BME280;8915;51.760;14.300;2022-12-10T06:26:13;100049.28;;;-1.82;100.00
17593;BME280;8915;51.760;14.300;2022-12-10T06:28:40;100052.69;;;-1.81;100.00
17593;BME280;8915;51.760;14.300;2022-12-10T06:31:06;100050.16;;;-1.83;100.00
17593;BME280;8915;51.760;14.300;2022-12-10T06:33:33;100058.63;;;-1.84;100.00
17593;BME280;8915;51.760;14.300;2022-12-10T06:36:03;100058.63;;;-1.84;100.00
17593;BME280;8915;51.760;14.300;2022-12-10T06:38:31;100062.06;;;-1.82;100.00
17593;BME280;8915;51.760;14.300;2022-12-10T06:40:57;100072.25;;;-1.83;100.00
17593;BME280;8915;51.760;14.300;2022-12-10T06:43:23;100061.19;;;-1.84;100.00
17593;BME280;8915;51.760;14.300;2022-12-10T06:45:50;100068.03;;;-1.83;100.00
17593;BME280;8915;51.760;14.300;2022-12-10T06:48:16;100071.38;;;-1.85;100.00
17593;BME280;8915;51.760;14.300;2022-12-10T06:50:42;100066.28;;;-1.85;100.00
17593;BME280;8915;51.760;14.300;2022-12-10T06:53:09;100066.25;;;-1.87;100.00
17593;BME280;8915;51.760;14.300;2022-12-10T06:55:37;100070.50;;;-1.87;100.00
17593;BME280;8915;51.760;14.300;2022-12-10T06:58:04;100072.22;;;-1.88;100.00
17593;BME280;8915;51.760;14.300;2022-12-10T07:00:30;100070.50;;;-1.87;100.00
17593;BME280;8915;51.760;14.300;2022-12-10T07:02:57;100070.50;;;-1.87;100.00
17593;BME280;8915;51.760;14.300;2022-12-10T07:05:23;100067.94;;;-1.87;100.00
17593;BME280;8915;51.760;14.300;2022-12-10T07:07:50;100073.06;;;-1.87;100.00
17593;BME280;8915;51.760;14.300;2022-12-10T07:10:16;100072.19;;;-1.89;100.00
17593;BME280;8915;51.760;14.300;2022-12-10T07:12:44;100070.44;;;-1.91;100.00
17593;BME280;8915;51.760;14.300;2022-12-10T07:15:10;100068.75;;;-1.90;100.00
17593;BME280;8915;51.760;14.300;2022-12-10T07:17:37;100076.44;;;-1.88;100.00
17593;BME280;8915;51.760;14.300;2022-12-10T07:20:05;100071.28;;;-1.93;100.00
17593;BME280;8915;51.760;14.300;2022-12-10T07:22:32;100070.44;;;-1.91;100.00
17593;BME280;8915;51.760;14.300;2022-12-10T07:24:58;100072.13;;;-1.93;100.00
17593;BME280;8915;51.760;14.300;2022-12-10T07:27:24;100079.72;;;-1.96;100.00
17593;BME280;8915;51.760;14.300;2022-12-10T07:29:53;100081.44;;;-1.96;100.00
17593;BME280;8915;51.760;14.300;2022-12-10T07:32:19;100073.78;;;-1.96;100.00
17593;BME280;8915;51.760;14.300;2022-12-10T07:34:45;100083.97;;;-1.98;100.00
17593;BME280;8915;51.760;14.300;2022-12-10T07:37:12;100080.56;;;-1.98;100.00
17593;BME280;8915;51.760;14.300;2022-12-10T07:39:38;100078.00;;;-1.98;100.00
17593;BME280;8915;51.760;14.300;2022-12-10T07:42:04;100078.81;;;-1.99;100.00
17593;BME280;8915;51.760;14.300;2022-12-10T07:44:31;100087.34;;;-2.00;100.00
17593;BME280;8915;51.760;14.300;2022-12-10T07:46:59;100089.03;;;-2.01;100.00
17593;BME280;8915;51.760;14.300;2022-12-10T07:49:25;100095.00;;;-1.99;100.00
17593;BME280;8915;51.760;14.300;2022-12-10T07:51:52;100097.56;;;-1.99;100.00
17593;BME280;8915;51.760;14.300;2022-12-10T07:54:19;100088.19;;;-2.00;100.00
17593;BME280;8915;51.760;14.300;2022-12-10T07:56:45;100094.09;;;-2.04;100.00
17593;BME280;8915;51.760;14.300;2022-12-10T07:59:12;100097.56;;;-2.00;100.00
17593;BME280;8915;51.760;14.300;2022-12-10T08:01:38;100104.34;;;-2.01;100.00
17593;BME280;8915;51.760;14.300;2022-12-10T08:04:06;100097.47;;;-2.05;100.00
17593;BME280;8915;51.760;14.300;2022-12-10T08:06:32;100100.97;;;-2.00;100.00
17593;BME280;8915;51.760;14.300;2022-12-10T08:09:00;100101.78;;;-2.01;100.00
17593;BME280;8915;51.760;14.300;2022-12-10T08:11:27;100098.38;;;-2.01;100.00
17593;BME280;8915;51.760;14.300;2022-12-10T08:13:54;100110.28;;;-2.03;100.00
17593;BME280;8915;51.760;14.300;2022-12-10T08:16:23;100101.78;;;-2.02;100.00
17593;BME280;8915;51.760;14.300;2022-12-10T08:18:50;100110.31;;;-2.02;100.00
17593;BME280;8915;51.760;14.300;2022-12-10T08:21:20;100103.50;;;-2.01;100.00
17593;BME280;8915;51.760;14.300;2022-12-10T08:23:47;100109.44;;;-2.02;100.00
17593;BME280;8915;51.760;14.300;2022-12-10T08:26:15;100107.72;;;-2.03;100.00
17593;BME280;8915;51.760;14.300;2022-12-10T08:28:42;100115.44;;;-2.00;100.00
17593;BME280;8915;51.760;14.300;2022-12-10T08:31:10;100114.53;;;-2.02;100.00
17593;BME280;8915;51.760;14.300;2022-12-10T08:33:38;100116.34;;;-1.98;100.00
17593;BME280;8915;51.760;14.300;2022-12-10T08:36:06;100118.88;;;-1.98;100.00
17593;BME280;8915;51.760;14.300;2022-12-10T08:38:34;100122.28;;;-1.98;100.00
17593;BME280;8915;51.760;14.300;2022-12-10T08:41:06;100113.75;;;-2.00;100.00
17593;BME280;8915;51.760;14.300;2022-12-10T08:43:32;100118.88;;;-2.00;100.00
17593;BME280;8915;51.760;14.300;2022-12-10T08:45:59;100129.09;;;-1.98;100.00
17593;BME280;8915;51.760;14.300;2022-12-10T08:48:25;100124.78;;;-2.01;100.00
17593;BME280;8915;51.760;14.300;2022-12-10T08:50:52;100129.94;;;-1.99;100.00
17593;BME280;8915;51.760;14.300;2022-12-10T08:53:18;100125.66;;;-1.99;100.00
17593;BME280;8915;51.760;14.300;2022-12-10T08:55:49;100121.44;;;-1.98;100.00
17593;BME280;8915;51.760;14.300;2022-12-10T08:58:15;100124.84;;;-1.98;100.00
17593;BME280;8915;51.760;14.300;2022-12-10T09:00:42;100126.56;;;-1.98;100.00
17593;BME280;8915;51.760;14.300;2022-12-10T09:03:08;100122.41;;;-1.92;100.00
17593;BME280;8915;51.760;14.300;2022-12-10T09:05:35;100122.41;;;-1.92;100.00
17593;BME280;8915;51.760;14.300;2022-12-10T09:08:01;100129.19;;;-1.92;100.00
17593;BME280;8915;51.760;14.300;2022-12-10T09:10:28;100130.09;;;-1.92;100.00
17593;BME280;8915;51.760;14.300;2022-12-10T09:12:55;100131.81;;;-1.89;100.00
17593;BME280;8915;51.760;14.300;2022-12-10T09:15:22;100135.25;;;-1.87;100.00
17593;BME280;8915;51.760;14.300;2022-12-10T09:17:48;100136.03;;;-1.91;100.00
17593;BME280;8915;51.760;14.300;2022-12-10T09:20:15;100136.09;;;-1.88;100.00
17593;BME280;8915;51.760;14.300;2022-12-10T09:22:41;100139.53;;;-1.86;100.00
17593;BME280;8915;51.760;14.300;2022-12-10T09:25:08;100140.31;;;-1.88;100.00
17593;BME280;8915;51.760;14.300;2022-12-10T09:27:36;100140.31;;;-1.92;100.00
17593;BME280;8915;51.760;14.300;2022-12-10T09:30:04;100134.31;;;-1.92;100.00
17593;BME280;8915;51.760;14.300;2022-12-10T09:32:31;100139.53;;;-1.86;100.00
17593;BME280;8915;51.760;14.300;2022-12-10T09:34:57;100135.34;;;-1.82;100.00
17593;BME280;8915;51.760;14.300;2022-12-10T09:37:24;100131.03;;;-1.83;100.00
17593;BME280;8915;51.760;14.300;2022-12-10T09:39:50;100129.38;;;-1.83;100.00
17593;BME280;8915;51.760;14.300;2022-12-10T09:42:26;100124.25;;;-1.81;100.00
17593;BME280;8915;51.760;14.300;2022-12-10T09:45:00;100124.28;;;-1.80;100.00
17593;BME280;8915;51.760;14.300;2022-12-10T09:47:34;100118.28;;;-1.82;100.00
17593;BME280;8915;51.760;14.300;2022-12-10T09:50:11;100120.06;;;-1.78;100.00
17593;BME280;8915;51.760;14.300;2022-12-10T09:52:41;100116.69;;;-1.75;100.00
17593;BME280;8915;51.760;14.300;2022-12-10T09:55:14;100115.00;;;-1.75;100.00
17593;BME280;8915;51.760;14.300;2022-12-10T09:57:42;100109.84;;;-1.76;100.00
17593;BME280;8915;51.760;14.300;2022-12-10T10:00:18;100111.66;;;-1.72;100.00
17593;BME280;8915;51.760;14.300;2022-12-10T10:02:46;100112.44;;;-1.75;100.00
17593;BME280;8915;51.760;14.300;2022-12-10T10:05:21;100106.56;;;-1.70;100.00
17593;BME280;8915;51.760;14.300;2022-12-10T10:07:52;100106.56;;;-1.70;100.00
17593;BME280;8915;51.760;14.300;2022-12-10T10:10:24;100118.50;;;-1.68;100.00
17593;BME280;8915;51.760;14.300;2022-12-10T10:12:53;100115.97;;;-1.68;100.00
17593;BME280;8915;51.760;14.300;2022-12-10T10:15:25;100110.94;;;-1.63;100.00
17593;BME280;8915;51.760;14.300;2022-12-10T10:17:58;100114.41;;;-1.58;100.00
17593;BME280;8915;51.760;14.300;2022-12-10T10:20:25;100109.28;;;-1.60;100.00
17593;BME280;8915;51.760;14.300;2022-12-10T10:22:53;100109.31;;;-1.58;100.00
17593;BME280;8915;51.760;14.300;2022-12-10T10:25:22;100111.88;;;-1.55;100.00
17593;BME280;8915;51.760;14.300;2022-12-10T10:27:48;100111.16;;;-1.46;100.00
17593;BME280;8915;51.760;14.300;2022-12-10T10:30:17;100112.88;;;-1.47;100.00
17593;BME280;8915;51.760;14.300;2022-12-10T10:32:47;100110.22;;;-1.52;100.00
17593;BME280;8915;51.760;14.300;2022-12-10T10:35:27;100114.53;;;-1.49;100.00
17593;BME280;8915;51.760;14.300;2022-12-10T10:38:04;100112.00;;;-1.49;100.00
17593;BME280;8915;51.760;14.300;2022-12-10T10:40:40;100112.88;;;-1.47;100.00
17593;BME280;8915;51.760;14.300;2022-12-10T10:43:14;100107.66;;;-1.52;100.00
17593;BME280;8915;51.760;14.300;2022-12-10T10:45:43;100109.47;;;-1.46;100.00
17593;BME280;8915;51.760;14.300;2022-12-10T10:48:15;100106.94;;;-1.46;100.00
17593;BME280;8915;51.760;14.300;2022-12-10T10:50:45;100105.19;;;-1.47;100.00
17593;BME280;8915;51.760;14.300;2022-12-10T10:53:28;100103.50;;;-1.45;100.00
17593;BME280;8915;51.760;14.300;2022-12-10T10:55:58;100100.97;;;-1.45;100.00
17593;BME280;8915;51.760;14.300;2022-12-10T10:58:26;100100.16;;;-1.41;100.00
17593;BME280;8915;51.760;14.300;2022-12-10T11:00:58;100100.22;;;-1.36;100.00
17593;BME280;8915;51.760;14.300;2022-12-10T11:03:26;100097.59;;;-1.41;100.00
17593;BME280;8915;51.760;14.300;2022-12-10T11:05:56;100101.84;;;-1.41;100.00
17593;BME280;8915;51.760;14.300;2022-12-10T11:08:26;100094.25;;;-1.38;100.00
17593;BME280;8915;51.760;14.300;2022-12-10T11:10:57;100095.97;;;-1.36;100.00
17593;BME280;8915;51.760;14.300;2022-12-10T11:13:29;100090.00;;;-1.36;100.00
17593;BME280;8915;51.760;14.300;2022-12-10T11:15:58;100093.47;;;-1.31;100.00
17593;BME280;8915;51.760;14.300;2022-12-10T11:18:31;100086.63;;;-1.35;100.00
17593;BME280;8915;51.760;14.300;2022-12-10T11:21:02;100099.41;;;-1.35;100.00
17593;BME280;8915;51.760;14.300;2022-12-10T11:23:30;100090.94;;;-1.29;100.00
17593;BME280;8915;51.760;14.300;2022-12-10T11:26:04;100090.94;;;-1.29;100.00
17593;BME280;8915;51.760;14.300;2022-12-10T11:28:43;100097.75;;;-1.31;100.00
17593;BME280;8915;51.760;14.300;2022-12-10T11:31:27;100090.00;;;-1.36;100.00
17593;BME280;8915;51.760;14.300;2022-12-10T11:34:01;100090.03;;;-1.35;100.00
17593;BME280;8915;51.760;14.300;2022-12-10T11:36:37;100091.81;;;-1.27;100.00
17593;BME280;8915;51.760;14.300;2022-12-10T11:39:16;100092.63;;;-1.31;100.00
17593;BME280;8915;51.760;14.300;2022-12-10T11:41:49;100090.03;;;-1.33;100.00
17593;BME280;8915;51.760;14.300;2022-12-10T11:44:25;100097.78;;;-1.30;100.00
17593;BME280;8915;51.760;14.300;2022-12-10T11:47:06;100099.44;;;-1.34;100.00
17593;BME280;8915;51.760;14.300;2022-12-10T11:49:42;100090.03;;;-1.33;100.00
17593;BME280;8915;51.760;14.300;2022-12-10T11:52:32;100090.00;;;-1.36;100.00
17593;BME280;8915;51.760;14.300;2022-12-10T11:55:17;100093.41;;;-1.36;100.00
17593;BME280;8915;51.760;14.300;2022-12-10T11:57:52;100090.09;;;-1.30;100.00
17593;BME280;8915;51.760;14.300;2022-12-10T12:00:27;100096.88;;;-1.34;100.00
17593;BME280;8915;51.760;14.300;2022-12-10T12:03:07;100101.06;;;-1.36;100.00
17593;BME280;8915;51.760;14.300;2022-12-10T12:05:51;100097.66;;;-1.36;100.00
17593;BME280;8915;51.760;14.300;2022-12-10T12:08:26;100099.41;;;-1.35;100.00
17593;BME280;8915;51.760;14.300;2022-12-10T12:11:04;100101.97;;;-1.35;100.00
17593;BME280;8915;51.760;14.300;2022-12-10T12:13:36;100101.94;;;-1.37;100.00
17593;BME280;8915;51.760;14.300;2022-12-10T12:16:09;100101.88;;;-1.40;100.00
17593;BME280;8915;51.760;14.300;2022-12-10T12:18:43;100104.47;;;-1.38;100.00
17593;BME280;8915;51.760;14.300;2022-12-10T12:21:14;100102.72;;;-1.41;100.00
17593;BME280;8915;51.760;14.300;2022-12-10T12:23:48;100107.06;;;-1.35;100.00
17593;BME280;8915;51.760;14.300;2022-12-10T12:26:20;100102.78;;;-1.36;100.00
17593;BME280;8915;51.760;14.300;2022-12-10T12:28:52;100106.19;;;-1.37;100.00
17593;BME280;8915;51.760;14.300;2022-12-10T12:31:21;100105.28;;;-1.42;100.00
17593;BME280;8915;51.760;14.300;2022-12-10T12:33:52;100106.19;;;-1.39;100.00
17593;BME280;8915;51.760;14.300;2022-12-10T12:36:22;100113.00;;;-1.38;100.00
17593;BME280;8915;51.760;14.300;2022-12-10T12:38:56;100115.50;;;-1.41;100.00
17593;BME280;8915;51.760;14.300;2022-12-10T12:41:31;100112.13;;;-1.38;100.00
17593;BME280;8915;51.760;14.300;2022-12-10T12:44:04;100111.31;;;-1.36;100.00
17593;BME280;8915;51.760;14.300;2022-12-10T12:46:39;100106.19;;;-1.37;100.00
17593;BME280;8915;51.760;14.300;2022-12-10T12:49:11;100103.66;;;-1.37;100.00
17593;BME280;8915;51.760;14.300;2022-12-10T12:51:43;100099.41;;;-1.35;100.00
17593;BME280;8915;51.760;14.300;2022-12-10T12:54:13;100097.66;;;-1.36;100.00